Atlantic Horizon — C6XI2 — position and weather

sailwx.info

Track history (hours):
 
Tides and Currents Weather Stations Pressure Air Temp Water Temp Dewpoint Dewpoint Depression Visibility Wind Speed Wind Dir Waves Ship Positions

Atlantic Horizon

Last reported at 2017-Apr-06 03:30 UTC. Time now 2017-May-29 03:43 UTC.
Position N 31°23' E 032°20'.
Warning: this ship's position is 53 days out of date.

Length 224 m; draft 12.6 m.

Type: Cargo ship. MMSI: 311010300.

Date/timePositionNaut miles runAvg speedWind from/ knotsBaromVisibWave heightAir tempDewpointWater temp
2017-Apr-06 03:30N 31°23' E 032°20'0 0.3
2017-Apr-06 02:25N 31°23' E 032°20'0 0.1
2017-Apr-06 01:28N 31°23' E 032°20'0 0.1
2017-Apr-06 00:40N 31°23' E 032°20'1 0.3
2017-Apr-05 21:25N 31°24' E 032°20'2 6.1
2017-Apr-05 21:01N 31°26' E 032°19'610.9
2017-Apr-05 20:27N 31°30' E 032°14'613.8
2017-Apr-05 20:01N 31°34' E 032°09'813.8
2017-Apr-05 19:27N 31°39' E 032°02'714.0
2017-Apr-05 18:56N 31°45' E 031°56'614.3
2017-Apr-05 18:29N 31°49' E 031°51'1414.2
2017-Apr-05 17:31N 31°57' E 031°37'014.7
2017-Apr-05 17:30N 31°57' E 031°37'814.2
2017-Apr-05 16:55N 32°01' E 031°29'33413.6
2017-Apr-04 16:23N 34°35' E 025°35'54210.7
2017-Apr-02 13:52N 36°23' E 014°42'512.8
2017-Apr-02 13:30N 36°24' E 014°36'612.6
2017-Apr-02 13:00N 36°25' E 014°29'612.5
2017-Apr-02 12:30N 36°27' E 014°21'612.6
2017-Apr-02 12:00N 36°28' E 014°14'612.3
2017-Apr-02 11:30N 36°30' E 014°06'612.3
2017-Apr-02 11:00N 36°31' E 013°59'612.5
2017-Apr-02 10:30N 36°32' E 013°51'612.6
2017-Apr-02 10:00N 36°33' E 013°43'612.7
2017-Apr-02 09:29N 36°35' E 013°36'612.9
2017-Apr-02 09:00N 36°36' E 013°28'612.7
2017-Apr-02 08:30N 36°38' E 013°20'21012.6
2017-Apr-01 15:47N 37°36' E 009°07'413.1
2017-Apr-01 15:30N 37°36' E 009°02'713.2
2017-Apr-01 15:00N 37°37' E 008°54'713.0
2017-Apr-01 14:29N 37°36' E 008°46'15912.8
2017-Apr-01 02:00N 37°13' E 005°28'1113.2
2017-Apr-01 01:10N 37°11' E 005°14'612.9
2017-Apr-01 00:43N 37°11' E 005°06'611.9
2017-Apr-01 00:14N 37°11' E 004°59'2 9.3
2017-Apr-01 00:00N 37°10' E 004°57'1311.5
2017-Mar-31 22:51N 37°08' E 004°40'1013.3
2017-Mar-31 22:05N 37°07' E 004°27'113.3
2017-Mar-31 22:00N 37°07' E 004°26'913.3
2017-Mar-31 21:21N 37°06' E 004°15'513.2
2017-Mar-31 21:00N 37°05' E 004°10'713.1
2017-Mar-31 20:26N 37°04' E 004°01'613.1
2017-Mar-31 20:00N 37°03' E 003°54'2113.2
2017-Mar-31 18:27N 36°60' E 003°28'613.4
2017-Mar-31 18:00N 36°59' E 003°21'913.3
2017-Mar-31 17:20N 36°58' E 003°10'413.0
2017-Mar-31 17:00N 36°57' E 003°04'612.9
2017-Mar-31 16:30N 36°57' E 002°56'613.0
2017-Mar-31 16:00N 36°56' E 002°48'713.2
2017-Mar-31 15:30N 36°55' E 002°40'713.1
2017-Mar-31 15:00N 36°54' E 002°32'612.9
2017-Mar-31 14:30N 36°53' E 002°24'1313.1
2017-Mar-31 13:30N 36°51' E 002°08'713.1
2017-Mar-31 13:00N 36°50' E 001°60'612.9
2017-Mar-31 12:30N 36°49' E 001°52'713.3
2017-Mar-31 12:00N 36°48' E 001°44'2513.4
2017-Mar-31 10:08N 36°45' E 001°13'9113.2
2017-Mar-31 03:15N 36°32' W 000°40'912.3
2017-Mar-31 02:33N 36°31' W 000°51'21213.1
2017-Mar-30 10:25N 36°01' W 005°11'1213.6
2017-Mar-30 09:33N 35°59' W 005°25'1514.4
2017-Mar-30 08:32N 35°55' W 005°42'1613.6
2017-Mar-30 07:23N 35°55' W 006°02'14712.4
2017-Mar-29 19:33N 36°29' W 008°58'1512.8
2017-Mar-29 18:24N 36°34' W 009°16'1112.9
2017-Mar-29 17:33N 36°41' W 009°26'1312.7
2017-Mar-29 16:33N 36°52' W 009°35'2913.0
2017-Mar-29 14:20N 37°20' W 009°43'1013.3
2017-Mar-29 13:33N 37°30' W 009°46'1313.2
2017-Mar-29 12:33N 37°43' W 009°49'1312.7
2017-Mar-29 11:33N 37°55' W 009°53'1312.7
2017-Mar-29 10:33N 38°08' W 009°57'1312.7
2017-Mar-29 09:33N 38°20' W 010°00'1312.6
2017-Mar-29 08:33N 38°32' W 010°04'1312.7
2017-Mar-29 07:33N 38°45' W 010°07'1313.1
2017-Mar-29 06:33N 38°58' W 010°07'1312.7
2017-Mar-29 05:33N 39°11' W 010°07'1312.3
2017-Mar-29 04:32N 39°23' W 010°07'1212.2
2017-Mar-29 03:34N 39°35' W 010°07'3712.2
2017-Mar-29 00:34N 40°12' W 010°07'  
Track history (hours):
 
Tides and Currents Weather Stations Pressure Air Temp Water Temp Dewpoint Dewpoint Depression Visibility Wind Speed Wind Dir Waves Ship Positions

Atlantic Horizon

Last reported at 2017-Apr-06 03:30 UTC. Time now 2017-May-29 03:43 UTC.
Position N 31°23' E 032°20'.
Warning: this ship's position is 53 days out of date.

Length 224 m; draft 12.6 m.

Type: Cargo ship. MMSI: 311010300.

Date/timePositionNaut miles runAvg speedWind from/ knotsBaromVisibWave heightAir tempDewpointWater temp
2017-Apr-06 03:30N 31°23' E 032°20'0 0.3
2017-Apr-06 02:25N 31°23' E 032°20'0 0.1
2017-Apr-06 01:28N 31°23' E 032°20'0 0.1
2017-Apr-06 00:40N 31°23' E 032°20'1 0.3
2017-Apr-05 21:25N 31°24' E 032°20'2 6.1
2017-Apr-05 21:01N 31°26' E 032°19'610.9
2017-Apr-05 20:27N 31°30' E 032°14'613.8
2017-Apr-05 20:01N 31°34' E 032°09'813.8
2017-Apr-05 19:27N 31°39' E 032°02'714.0
2017-Apr-05 18:56N 31°45' E 031°56'614.3
2017-Apr-05 18:29N 31°49' E 031°51'1414.2
2017-Apr-05 17:31N 31°57' E 031°37'014.7
2017-Apr-05 17:30N 31°57' E 031°37'814.2
2017-Apr-05 16:55N 32°01' E 031°29'33413.6
2017-Apr-04 16:23N 34°35' E 025°35'54210.7
2017-Apr-02 13:52N 36°23' E 014°42'512.8
2017-Apr-02 13:30N 36°24' E 014°36'612.6
2017-Apr-02 13:00N 36°25' E 014°29'612.5
2017-Apr-02 12:30N 36°27' E 014°21'612.6
2017-Apr-02 12:00N 36°28' E 014°14'612.3
2017-Apr-02 11:30N 36°30' E 014°06'612.3
2017-Apr-02 11:00N 36°31' E 013°59'612.5
2017-Apr-02 10:30N 36°32' E 013°51'612.6
2017-Apr-02 10:00N 36°33' E 013°43'612.7
2017-Apr-02 09:29N 36°35' E 013°36'612.9
2017-Apr-02 09:00N 36°36' E 013°28'612.7
2017-Apr-02 08:30N 36°38' E 013°20'21012.6
2017-Apr-01 15:47N 37°36' E 009°07'413.1
2017-Apr-01 15:30N 37°36' E 009°02'713.2
2017-Apr-01 15:00N 37°37' E 008°54'713.0
2017-Apr-01 14:29N 37°36' E 008°46'15912.8
2017-Apr-01 02:00N 37°13' E 005°28'1113.2
2017-Apr-01 01:10N 37°11' E 005°14'612.9
2017-Apr-01 00:43N 37°11' E 005°06'611.9
2017-Apr-01 00:14N 37°11' E 004°59'2 9.3
2017-Apr-01 00:00N 37°10' E 004°57'1311.5
2017-Mar-31 22:51N 37°08' E 004°40'1013.3
2017-Mar-31 22:05N 37°07' E 004°27'113.3
2017-Mar-31 22:00N 37°07' E 004°26'913.3
2017-Mar-31 21:21N 37°06' E 004°15'513.2
2017-Mar-31 21:00N 37°05' E 004°10'713.1
2017-Mar-31 20:26N 37°04' E 004°01'613.1
2017-Mar-31 20:00N 37°03' E 003°54'2113.2
2017-Mar-31 18:27N 36°60' E 003°28'613.4
2017-Mar-31 18:00N 36°59' E 003°21'913.3
2017-Mar-31 17:20N 36°58' E 003°10'413.0
2017-Mar-31 17:00N 36°57' E 003°04'612.9
2017-Mar-31 16:30N 36°57' E 002°56'613.0
2017-Mar-31 16:00N 36°56' E 002°48'713.2
2017-Mar-31 15:30N 36°55' E 002°40'713.1
2017-Mar-31 15:00N 36°54' E 002°32'612.9
2017-Mar-31 14:30N 36°53' E 002°24'1313.1
2017-Mar-31 13:30N 36°51' E 002°08'713.1
2017-Mar-31 13:00N 36°50' E 001°60'612.9
2017-Mar-31 12:30N 36°49' E 001°52'713.3
2017-Mar-31 12:00N 36°48' E 001°44'2513.4
2017-Mar-31 10:08N 36°45' E 001°13'9113.2
2017-Mar-31 03:15N 36°32' W 000°40'912.3
2017-Mar-31 02:33N 36°31' W 000°51'21213.1
2017-Mar-30 10:25N 36°01' W 005°11'1213.6
2017-Mar-30 09:33N 35°59' W 005°25'1514.4
2017-Mar-30 08:32N 35°55' W 005°42'1613.6
2017-Mar-30 07:23N 35°55' W 006°02'14712.4
2017-Mar-29 19:33N 36°29' W 008°58'1512.8
2017-Mar-29 18:24N 36°34' W 009°16'1112.9
2017-Mar-29 17:33N 36°41' W 009°26'1312.7
2017-Mar-29 16:33N 36°52' W 009°35'2913.0
2017-Mar-29 14:20N 37°20' W 009°43'1013.3
2017-Mar-29 13:33N 37°30' W 009°46'1313.2
2017-Mar-29 12:33N 37°43' W 009°49'1312.7
2017-Mar-29 11:33N 37°55' W 009°53'1312.7
2017-Mar-29 10:33N 38°08' W 009°57'1312.7
2017-Mar-29 09:33N 38°20' W 010°00'1312.6
2017-Mar-29 08:33N 38°32' W 010°04'1312.7
2017-Mar-29 07:33N 38°45' W 010°07'1313.1
2017-Mar-29 06:33N 38°58' W 010°07'1312.7
2017-Mar-29 05:33N 39°11' W 010°07'1312.3
2017-Mar-29 04:32N 39°23' W 010°07'1212.2
2017-Mar-29 03:34N 39°35' W 010°07'3712.2
2017-Mar-29 00:34N 40°12' W 010°07'  

Dump ship's entire track history